createdAt,value
2018-12-03T12:53:37.944Z,100.00
2018-12-03T12:56:13.850Z,100.00
2018-12-03T12:58:49.244Z,100.00
2018-12-03T13:01:24.643Z,87.02
2018-12-03T13:04:01.155Z,79.18
2018-12-03T13:06:37.344Z,77.45
2018-12-03T13:09:12.402Z,52.47
2018-12-03T13:11:47.884Z,68.56
2018-12-03T13:14:23.342Z,66.68
2018-12-03T13:16:59.136Z,67.08
2018-12-03T13:19:35.521Z,69.51
2018-12-03T13:22:11.250Z,70.18
2018-12-03T13:24:47.070Z,67.95
2018-12-03T13:27:22.605Z,67.52
2018-12-03T13:29:59.203Z,67.93
2018-12-03T13:32:34.791Z,67.79
2018-12-03T13:35:10.281Z,66.81
2018-12-03T13:37:46.294Z,64.62
2018-12-03T13:40:22.275Z,63.71
2018-12-03T13:42:57.689Z,64.03
2018-12-03T13:45:33.295Z,65.97
2018-12-03T13:48:09.866Z,63.58
2018-12-03T13:50:46.015Z,64.71
2018-12-03T13:53:21.668Z,58.80
2018-12-03T13:55:57.186Z,60.97
2018-12-03T13:58:35.119Z,60.89
2018-12-03T14:01:10.196Z,62.55
2018-12-03T14:03:45.746Z,60.05
2018-12-03T14:06:22.309Z,59.80
2018-12-03T14:08:58.205Z,60.76
2018-12-03T14:11:33.582Z,61.33
2018-12-03T14:14:12.472Z,57.49
2018-12-03T14:16:50.860Z,58.30
2018-12-03T14:19:28.090Z,60.52
2018-12-03T14:22:03.854Z,60.16
2018-12-03T14:24:41.264Z,59.69
2018-12-03T14:27:16.223Z,60.35
2018-12-03T14:29:52.676Z,60.63
2018-12-03T14:32:28.402Z,62.36
2018-12-03T14:35:04.994Z,63.28
2018-12-03T14:37:40.812Z,62.21
2018-12-03T14:40:16.475Z,55.86
2018-12-03T14:42:54.318Z,58.66
2018-12-03T14:45:30.533Z,59.95
2018-12-03T14:48:05.750Z,59.41
2018-12-03T14:50:41.485Z,57.41
2018-12-03T14:53:16.779Z,61.55
2018-12-03T14:55:52.310Z,60.62
2018-12-03T14:58:29.159Z,61.08
2018-12-03T15:01:04.276Z,62.74
2018-12-03T15:03:57.887Z,61.34
2018-12-03T15:10:01.665Z,60.10
2018-12-03T15:15:26.320Z,63.58
2018-12-03T15:18:02.278Z,64.06
2018-12-03T15:20:39.194Z,63.71
2018-12-03T15:23:39.295Z,63.69
2018-12-03T15:26:15.579Z,63.93
2018-12-03T15:28:55.373Z,63.29
2018-12-03T15:31:36.475Z,63.64
2018-12-03T15:36:54.999Z,62.96
2018-12-03T15:42:18.499Z,60.38
2018-12-03T15:44:53.672Z,61.37
2018-12-03T15:47:29.734Z,60.19
2018-12-03T15:50:06.532Z,58.66
2018-12-03T15:52:41.820Z,58.21
2018-12-03T15:55:17.287Z,58.06
2018-12-03T15:57:53.548Z,58.68
2018-12-03T16:00:29.427Z,59.86
2018-12-03T16:03:04.707Z,60.07
2018-12-03T16:05:42.919Z,59.77
2018-12-03T16:08:19.442Z,60.12
2018-12-03T16:10:54.330Z,60.64
2018-12-03T16:13:29.819Z,59.74
2018-12-03T16:16:05.196Z,60.61
2018-12-03T16:18:41.365Z,59.69
2018-12-03T16:21:16.764Z,59.71
2018-12-03T16:23:56.009Z,58.91
2018-12-03T16:26:32.582Z,58.51
2018-12-03T16:29:09.887Z,60.19
2018-12-03T16:31:50.502Z,63.36
2018-12-03T16:34:27.452Z,63.56
2018-12-03T16:37:05.437Z,63.23
2018-12-03T16:39:42.157Z,63.29
2018-12-03T16:42:17.288Z,59.96
2018-12-03T16:44:55.756Z,62.35
2018-12-03T16:47:32.092Z,61.37
2018-12-03T16:50:07.270Z,63.28
2018-12-03T16:52:44.022Z,63.02
2018-12-03T16:55:21.991Z,63.53
2018-12-03T16:57:57.969Z,63.56
2018-12-03T17:00:33.470Z,64.05
2018-12-03T17:03:09.252Z,63.78
2018-12-03T17:05:46.164Z,65.02
2018-12-03T17:08:21.208Z,64.19
2018-12-03T17:10:57.470Z,64.83
2018-12-03T17:13:34.374Z,64.69
2018-12-03T17:16:09.695Z,64.07
2018-12-03T17:18:46.014Z,64.84
2018-12-03T17:21:22.170Z,65.27
2018-12-03T17:23:57.645Z,65.90
2018-12-03T17:26:32.936Z,65.63
2018-12-03T17:29:09.391Z,60.53
2018-12-03T17:31:45.042Z,59.35
2018-12-03T17:34:21.761Z,61.29
2018-12-03T17:36:57.886Z,62.03
2018-12-03T17:39:33.554Z,61.05
2018-12-03T17:42:10.052Z,58.95
2018-12-03T17:44:47.117Z,57.74
2018-12-03T17:47:22.904Z,54.08
2018-12-03T17:49:58.684Z,56.06
